createdAt,value
2022-10-09T00:01:11.378Z,15.41
2022-10-09T00:03:42.597Z,15.14
2022-10-09T00:06:13.340Z,15.79
2022-10-09T00:08:43.764Z,15.50
2022-10-09T00:11:13.694Z,15.08
2022-10-09T00:13:41.658Z,15.23
2022-10-09T00:16:12.540Z,15.10
2022-10-09T00:18:42.414Z,15.16
2022-10-09T00:21:20.291Z,15.88
2022-10-09T00:23:48.548Z,15.92
2022-10-09T00:26:17.112Z,15.78
2022-10-09T00:28:45.246Z,15.60
2022-10-09T00:31:13.754Z,15.18
2022-10-09T00:33:43.728Z,15.36
2022-10-09T00:36:14.359Z,15.07
2022-10-09T00:38:42.658Z,15.12
2022-10-09T00:41:14.975Z,15.00
2022-10-09T00:43:46.434Z,15.66
2022-10-09T00:46:34.738Z,15.56
2022-10-09T00:49:12.146Z,15.16
2022-10-09T00:51:40.659Z,15.22
2022-10-09T00:54:12.645Z,14.67
2022-10-09T00:56:40.715Z,15.02
2022-10-09T00:59:09.445Z,14.71
2022-10-09T01:01:37.555Z,14.78
2022-10-09T01:04:06.969Z,15.18
2022-10-09T01:06:50.060Z,15.05
2022-10-09T01:09:21.146Z,15.48
2022-10-09T01:11:57.222Z,15.61
2022-10-09T01:14:30.583Z,15.40
2022-10-09T01:17:08.988Z,15.42
2022-10-09T01:19:56.954Z,14.76
2022-10-09T01:22:47.378Z,14.63
2022-10-09T01:25:24.868Z,14.40
2022-10-09T01:27:55.106Z,14.41
2022-10-09T01:30:23.257Z,14.55
2022-10-09T01:32:53.215Z,14.63
2022-10-09T01:35:22.965Z,14.73
2022-10-09T01:37:53.434Z,14.61
2022-10-09T01:40:22.949Z,14.99
2022-10-09T01:42:51.242Z,15.02
2022-10-09T01:45:20.840Z,14.91
2022-10-09T01:47:48.814Z,14.37
2022-10-09T01:50:24.565Z,14.54
2022-10-09T01:52:57.304Z,14.56
2022-10-09T01:55:37.418Z,14.04
2022-10-09T01:58:12.005Z,14.14
2022-10-09T02:00:46.493Z,14.30
2022-10-09T02:03:17.460Z,14.21
2022-10-09T02:05:48.916Z,14.18
2022-10-09T02:08:20.364Z,13.98
2022-10-09T02:10:51.425Z,14.01
2022-10-09T02:13:20.874Z,14.21
2022-10-09T02:15:54.360Z,13.92
2022-10-09T02:18:34.655Z,13.71
2022-10-09T02:21:09.969Z,14.08
2022-10-09T02:23:41.277Z,13.53
2022-10-09T02:26:10.233Z,13.92
2022-10-09T02:28:41.441Z,13.83
2022-10-09T02:31:21.362Z,13.51
2022-10-09T02:33:56.054Z,13.76
2022-10-09T02:36:24.071Z,13.86
2022-10-09T02:38:52.044Z,13.35
2022-10-09T02:41:20.030Z,13.59
2022-10-09T02:43:47.999Z,13.58
2022-10-09T02:46:17.530Z,13.27
2022-10-09T02:48:45.860Z,13.28
2022-10-09T02:51:13.899Z,13.13
2022-10-09T02:53:42.058Z,13.39
2022-10-09T02:56:10.132Z,13.30
2022-10-09T02:58:38.409Z,13.14
2022-10-09T03:01:06.797Z,13.36
2022-10-09T03:03:36.243Z,13.50
2022-10-09T03:06:06.257Z,13.31
2022-10-09T03:08:34.325Z,13.74
2022-10-09T03:11:02.280Z,13.66
2022-10-09T03:13:31.158Z,13.02
2022-10-09T03:16:04.112Z,13.56
2022-10-09T03:18:32.546Z,13.19
2022-10-09T03:21:01.857Z,13.22
2022-10-09T03:23:30.969Z,13.04
2022-10-09T03:25:59.751Z,13.04
2022-10-09T03:28:28.262Z,13.19
2022-10-09T03:30:57.050Z,13.07
2022-10-09T03:33:25.040Z,13.36
2022-10-09T03:35:53.136Z,13.04
2022-10-09T03:38:22.500Z,12.33
2022-10-09T03:40:50.446Z,12.21
2022-10-09T03:43:18.521Z,12.56
2022-10-09T03:45:46.504Z,12.08
2022-10-09T03:48:15.230Z,12.23
2022-10-09T03:50:43.234Z,11.89
2022-10-09T03:53:13.513Z,12.18
2022-10-09T03:55:43.606Z,12.23
2022-10-09T03:58:11.851Z,11.87
2022-10-09T04:00:39.969Z,12.29
2022-10-09T04:03:08.040Z,12.43
2022-10-09T04:05:36.585Z,12.03
2022-10-09T04:08:04.568Z,11.90
2022-10-09T04:10:32.528Z,12.02
2022-10-09T04:13:01.838Z,12.15
2022-10-09T04:15:29.784Z,12.18
2022-10-09T04:17:57.779Z,12.07
2022-10-09T04:20:25.746Z,12.18
2022-10-09T04:22:53.714Z,11.93
2022-10-09T04:25:21.720Z,12.21
2022-10-09T04:27:49.896Z,12.12
2022-10-09T04:30:19.238Z,11.79
2022-10-09T04:32:48.858Z,12.02
2022-10-09T04:35:17.524Z,11.89
2022-10-09T04:37:45.558Z,11.66
2022-10-09T04:40:13.491Z,11.49
2022-10-09T04:42:41.535Z,11.43
2022-10-09T04:45:10.666Z,11.51
2022-10-09T04:47:40.589Z,12.04
2022-10-09T04:50:09.606Z,11.54
2022-10-09T04:52:37.619Z,11.78
2022-10-09T04:55:06.168Z,11.92
2022-10-09T04:57:34.122Z,11.47
2022-10-09T05:00:02.118Z,12.01
2022-10-09T05:02:30.085Z,11.71
2022-10-09T05:04:59.463Z,11.79
2022-10-09T05:07:27.384Z,11.40
2022-10-09T05:09:55.444Z,11.17
2022-10-09T05:12:23.413Z,11.16
2022-10-09T05:14:51.445Z,10.93
2022-10-09T05:17:23.014Z,11.17
2022-10-09T05:19:51.562Z,11.07
2022-10-09T05:22:20.900Z,10.70
2022-10-09T05:24:48.854Z,10.97
2022-10-09T05:27:16.761Z,10.54
2022-10-09T05:29:44.685Z,10.89
2022-10-09T05:32:12.707Z,10.84
2022-10-09T05:34:40.802Z,11.01
2022-10-09T05:37:08.777Z,11.05
2022-10-09T05:39:38.528Z,11.23
2022-10-09T05:42:06.801Z,11.01
2022-10-09T05:44:34.825Z,11.34
2022-10-09T05:47:02.803Z,11.00
2022-10-09T05:49:30.783Z,10.57
2022-10-09T05:51:58.801Z,10.33
2022-10-09T05:54:27.525Z,10.69
2022-10-09T05:56:56.846Z,10.91
2022-10-09T05:59:25.557Z,10.51
2022-10-09T06:01:54.849Z,11.06
2022-10-09T06:04:25.480Z,10.82
2022-10-09T06:06:53.887Z,11.23
2022-10-09T06:09:24.012Z,10.98
2022-10-09T06:11:52.962Z,10.97
2022-10-09T06:14:24.425Z,12.01
2022-10-09T06:16:52.525Z,11.45
2022-10-09T06:19:21.115Z,11.43
2022-10-09T06:21:49.425Z,10.91
2022-10-09T06:24:27.335Z,11.94
2022-10-09T06:26:56.578Z,11.23
2022-10-09T06:29:25.881Z,11.06
2022-10-09T06:31:53.982Z,11.56
2022-10-09T06:34:22.494Z,10.90
2022-10-09T06:36:50.770Z,11.28
2022-10-09T06:39:18.935Z,11.49
2022-10-09T06:41:46.973Z,11.50
2022-10-09T06:44:34.647Z,11.58
2022-10-09T06:47:02.650Z,11.94
2022-10-09T06:49:30.731Z,11.66
2022-10-09T06:51:58.738Z,12.21
2022-10-09T06:54:26.684Z,12.46
2022-10-09T06:56:55.202Z,12.21
2022-10-09T06:59:23.171Z,12.75
2022-10-09T07:01:52.547Z,12.12
2022-10-09T07:04:21.747Z,12.16
2022-10-09T07:06:49.713Z,12.22
2022-10-09T07:09:17.837Z,11.76
2022-10-09T07:11:49.258Z,12.54
2022-10-09T07:14:18.058Z,12.05
2022-10-09T07:16:48.408Z,11.76
2022-10-09T07:19:18.917Z,11.58
2022-10-09T07:21:48.806Z,11.64
2022-10-09T07:24:20.418Z,11.21
2022-10-09T07:26:49.554Z,12.12
2022-10-09T07:29:19.598Z,12.54
2022-10-09T07:31:47.757Z,11.46
2022-10-09T07:34:17.395Z,12.04
2022-10-09T07:36:45.398Z,12.07
2022-10-09T07:39:13.517Z,12.21
2022-10-09T07:41:41.513Z,12.43
2022-10-09T07:44:10.317Z,12.55
2022-10-09T07:46:38.931Z,12.90
2022-10-09T07:49:07.163Z,12.47
2022-10-09T07:51:36.554Z,11.89
2022-10-09T07:54:04.727Z,11.90
2022-10-09T07:56:34.359Z,12.28
2022-10-09T07:59:04.670Z,12.17
2022-10-09T08:01:33.939Z,12.63
2022-10-09T08:04:02.514Z,12.14
2022-10-09T08:06:31.128Z,12.70
2022-10-09T08:09:01.571Z,12.47
2022-10-09T08:11:30.793Z,12.72
2022-10-09T08:13:59.111Z,13.07
2022-10-09T08:16:28.455Z,13.11
2022-10-09T08:18:57.811Z,12.34
2022-10-09T08:21:26.156Z,12.14
2022-10-09T08:23:55.311Z,12.02
2022-10-09T08:26:25.708Z,11.99
2022-10-09T08:28:55.418Z,12.07
2022-10-09T08:31:24.407Z,12.74
2022-10-09T08:33:56.492Z,12.35
2022-10-09T08:36:25.762Z,12.36
2022-10-09T08:38:54.029Z,12.76
2022-10-09T08:41:35.140Z,12.76
2022-10-09T08:44:06.642Z,12.45
2022-10-09T08:46:41.089Z,13.28
2022-10-09T08:49:21.535Z,13.78
2022-10-09T08:51:50.072Z,13.62
2022-10-09T08:54:27.587Z,13.31
2022-10-09T08:56:56.989Z,13.64
2022-10-09T08:59:25.168Z,13.62
2022-10-09T09:02:03.793Z,13.88
2022-10-09T09:04:57.818Z,12.70
2022-10-09T09:07:34.257Z,13.64
2022-10-09T09:10:12.203Z,14.27
2022-10-09T09:12:50.233Z,13.10
2022-10-09T09:15:29.815Z,13.61
2022-10-09T09:18:17.934Z,13.58
2022-10-09T09:20:53.530Z,13.89
2022-10-09T09:23:27.625Z,14.14
2022-10-09T09:25:56.433Z,13.70
2022-10-09T09:28:35.710Z,13.57
2022-10-09T09:31:09.636Z,14.45
2022-10-09T09:33:45.214Z,14.97
2022-10-09T09:36:19.534Z,14.53
2022-10-09T09:39:24.959Z,13.90
2022-10-09T09:41:35.636Z,13.79
2022-10-09T09:44:06.383Z,13.65
2022-10-09T09:46:36.590Z,13.84
2022-10-09T09:49:09.341Z,13.55
2022-10-09T09:51:37.927Z,13.90
2022-10-09T09:54:08.845Z,14.31
2022-10-09T09:57:06.975Z,14.52
2022-10-09T09:59:34.703Z,14.67
2022-10-09T10:02:05.517Z,14.63
2022-10-09T10:04:34.149Z,13.85
2022-10-09T10:07:02.700Z,13.82
2022-10-09T10:09:32.007Z,14.13
2022-10-09T10:12:03.645Z,14.11
2022-10-09T10:14:33.862Z,14.58
2022-10-09T10:17:03.391Z,14.26
2022-10-09T10:19:35.037Z,14.07
2022-10-09T10:22:05.523Z,14.29
2022-10-09T10:24:36.742Z,14.32
2022-10-09T10:27:12.879Z,14.46
2022-10-09T10:29:45.033Z,14.75
2022-10-09T10:32:19.354Z,15.33
2022-10-09T10:34:52.823Z,15.12
2022-10-09T10:37:32.852Z,14.96
2022-10-09T10:40:04.687Z,15.39
2022-10-09T10:42:43.923Z,15.19
2022-10-09T10:45:17.621Z,15.12
2022-10-09T10:47:51.643Z,15.07
2022-10-09T10:50:21.569Z,15.53
2022-10-09T10:53:04.013Z,16.26
2022-10-09T10:55:44.527Z,15.20
2022-10-09T10:58:25.665Z,14.62
2022-10-09T11:01:10.029Z,15.05
2022-10-09T11:03:55.191Z,15.50
2022-10-09T11:06:30.629Z,15.47
2022-10-09T11:09:09.942Z,15.12
2022-10-09T11:11:43.877Z,14.84
2022-10-09T11:14:27.613Z,15.31
2022-10-09T11:17:07.272Z,16.13
2022-10-09T11:20:12.523Z,15.76
2022-10-09T11:22:58.841Z,15.86
2022-10-09T11:25:38.540Z,16.46
2022-10-09T11:28:15.589Z,15.75
2022-10-09T11:30:51.465Z,15.81
2022-10-09T11:33:33.064Z,16.65
2022-10-09T11:36:07.706Z,17.09
2022-10-09T11:38:43.069Z,17.59
2022-10-09T11:41:14.147Z,17.08
2022-10-09T11:43:57.131Z,17.20
2022-10-09T11:46:43.895Z,16.14
2022-10-09T11:49:25.989Z,15.47
2022-10-09T11:52:01.645Z,15.41
2022-10-09T11:54:31.573Z,15.59
2022-10-09T11:57:06.186Z,15.41
2022-10-09T11:59:42.599Z,15.36
2022-10-09T12:02:27.323Z,16.92
2022-10-09T12:04:59.629Z,17.56
2022-10-09T12:07:33.156Z,18.39
2022-10-09T12:10:08.182Z,20.21
2022-10-09T12:12:39.160Z,21.63
2022-10-09T12:15:28.755Z,20.10
2022-10-09T12:18:02.036Z,21.33
2022-10-09T12:20:38.764Z,18.57
2022-10-09T12:23:26.110Z,20.25
2022-10-09T12:25:56.231Z,18.21
2022-10-09T12:28:31.157Z,18.80
2022-10-09T12:31:01.668Z,19.45
2022-10-09T12:33:36.196Z,19.85
2022-10-09T12:36:13.443Z,18.62
2022-10-09T12:38:42.261Z,18.94
2022-10-09T12:41:21.844Z,18.71
2022-10-09T12:43:52.365Z,19.62
2022-10-09T12:46:32.311Z,20.49
2022-10-09T12:49:02.322Z,20.96
2022-10-09T12:51:34.843Z,19.14
2022-10-09T12:54:09.726Z,19.74
2022-10-09T12:56:39.948Z,19.17
2022-10-09T12:59:10.182Z,18.82
2022-10-09T13:01:39.584Z,18.80
2022-10-09T13:04:09.926Z,17.56
2022-10-09T13:06:44.822Z,18.02
2022-10-09T13:09:21.531Z,17.94
2022-10-09T13:11:55.434Z,17.80
2022-10-09T13:14:28.203Z,18.47
2022-10-09T13:16:56.431Z,18.07
2022-10-09T13:19:27.268Z,17.54
2022-10-09T13:22:07.961Z,17.41
2022-10-09T13:24:36.971Z,18.20
2022-10-09T13:27:05.996Z,17.52
2022-10-09T13:29:34.638Z,17.44
2022-10-09T13:32:03.359Z,17.23
2022-10-09T13:34:31.631Z,17.14
2022-10-09T13:36:59.872Z,17.00
2022-10-09T13:39:29.985Z,17.32
2022-10-09T13:42:00.418Z,18.68
2022-10-09T13:44:28.693Z,18.51
2022-10-09T13:46:56.859Z,17.80
2022-10-09T13:49:25.084Z,17.17
2022-10-09T13:51:53.292Z,17.68
2022-10-09T13:54:21.377Z,17.47
2022-10-09T13:56:50.881Z,18.33
2022-10-09T13:59:19.723Z,18.23
2022-10-09T14:01:47.805Z,18.21
2022-10-09T14:04:16.018Z,18.13
2022-10-09T14:06:44.186Z,18.38
2022-10-09T14:09:12.165Z,17.43
2022-10-09T14:11:40.330Z,18.25
2022-10-09T14:14:09.833Z,17.76
2022-10-09T14:16:37.999Z,17.76
2022-10-09T14:19:07.131Z,18.44
2022-10-09T14:21:35.375Z,19.39
2022-10-09T14:24:04.823Z,18.50
2022-10-09T14:26:34.127Z,18.15
2022-10-09T14:29:03.784Z,18.04
2022-10-09T14:31:33.419Z,18.39
2022-10-09T14:34:01.561Z,19.79
2022-10-09T14:36:30.137Z,19.23
2022-10-09T14:39:00.682Z,18.59
2022-10-09T14:41:33.204Z,18.35
2022-10-09T14:44:04.179Z,17.82
2022-10-09T14:46:35.056Z,18.52
2022-10-09T14:49:07.488Z,18.66
2022-10-09T14:51:37.594Z,18.55
2022-10-09T14:54:06.405Z,18.47
2022-10-09T14:56:34.767Z,18.37
2022-10-09T14:59:03.201Z,19.70
2022-10-09T15:01:31.334Z,20.35
2022-10-09T15:04:02.897Z,20.87
2022-10-09T15:06:31.302Z,20.82
2022-10-09T15:09:04.602Z,21.26
2022-10-09T15:11:35.287Z,21.51
2022-10-09T15:14:03.754Z,21.15
2022-10-09T15:16:31.876Z,21.25
2022-10-09T15:19:01.629Z,21.53
2022-10-09T15:21:32.368Z,21.27
2022-10-09T15:24:01.891Z,21.66
2022-10-09T15:26:32.941Z,21.46
2022-10-09T15:29:02.681Z,21.32
2022-10-09T15:31:33.068Z,21.14
2022-10-09T15:34:02.667Z,20.66
2022-10-09T15:36:32.370Z,20.61
2022-10-09T15:39:02.987Z,20.84
2022-10-09T15:41:32.547Z,20.29
2022-10-09T15:44:02.325Z,19.24
2022-10-09T15:46:31.129Z,19.19
2022-10-09T15:48:59.389Z,19.28
2022-10-09T15:51:30.161Z,18.62
2022-10-09T15:54:01.071Z,18.37
2022-10-09T15:56:30.359Z,18.35
2022-10-09T15:58:59.957Z,18.50
2022-10-09T16:01:28.093Z,18.58
2022-10-09T16:03:56.198Z,18.18
2022-10-09T16:06:25.211Z,17.99
2022-10-09T16:08:58.626Z,17.37
2022-10-09T16:11:27.174Z,17.52
2022-10-09T16:13:56.247Z,16.93
2022-10-09T16:16:25.810Z,16.84
2022-10-09T16:18:54.640Z,16.89
2022-10-09T16:21:27.429Z,16.56
2022-10-09T16:23:59.054Z,16.47
2022-10-09T16:26:30.585Z,16.64
2022-10-09T16:29:00.591Z,16.89
2022-10-09T16:31:31.398Z,16.98
2022-10-09T16:34:00.253Z,16.83
2022-10-09T16:36:29.012Z,16.72
2022-10-09T16:38:59.215Z,16.40
2022-10-09T16:41:29.016Z,16.35
2022-10-09T16:44:00.267Z,16.36
2022-10-09T16:46:31.652Z,16.22
2022-10-09T16:49:01.817Z,16.11
2022-10-09T16:51:32.666Z,16.14
2022-10-09T16:54:02.680Z,16.14
2022-10-09T16:56:34.336Z,15.90
2022-10-09T16:59:04.400Z,15.94
2022-10-09T17:01:35.474Z,15.91
2022-10-09T17:04:03.546Z,15.82
2022-10-09T17:06:31.859Z,15.74
2022-10-09T17:09:01.010Z,15.67
2022-10-09T17:11:32.688Z,15.58
2022-10-09T17:14:00.714Z,15.25
2022-10-09T17:16:31.289Z,15.20
2022-10-09T17:19:00.080Z,15.16
2022-10-09T17:21:32.861Z,15.17
2022-10-09T17:24:04.800Z,15.01
2022-10-09T17:26:34.378Z,14.92
2022-10-09T17:29:03.364Z,14.87
2022-10-09T17:31:32.208Z,14.88
2022-10-09T17:34:02.177Z,14.77
2022-10-09T17:36:32.551Z,14.80
2022-10-09T17:39:00.813Z,14.80
2022-10-09T17:41:30.267Z,14.70
2022-10-09T17:44:00.229Z,14.64
2022-10-09T17:46:30.547Z,14.56
2022-10-09T17:48:59.693Z,14.44
2022-10-09T17:51:29.675Z,14.33
2022-10-09T17:54:01.246Z,14.23
2022-10-09T17:56:30.202Z,14.16
2022-10-09T17:59:01.801Z,14.09
2022-10-09T18:01:30.343Z,14.03
2022-10-09T18:03:58.904Z,13.91
2022-10-09T18:06:27.610Z,13.94
2022-10-09T18:08:58.049Z,13.80
2022-10-09T18:11:27.635Z,13.75
2022-10-09T18:13:55.831Z,13.66
2022-10-09T18:16:35.951Z,13.56
2022-10-09T18:19:06.745Z,13.46
2022-10-09T18:21:35.499Z,13.49
2022-10-09T18:24:03.823Z,13.50
2022-10-09T18:26:32.045Z,13.43
2022-10-09T18:29:00.970Z,13.37
2022-10-09T18:31:31.256Z,13.35
2022-10-09T18:34:00.768Z,13.29
2022-10-09T18:36:33.552Z,13.25
2022-10-09T18:39:03.565Z,13.19
2022-10-09T18:41:31.568Z,13.14
2022-10-09T18:44:02.486Z,13.12
2022-10-09T18:46:35.969Z,13.04
2022-10-09T18:49:09.201Z,13.03
2022-10-09T18:51:40.715Z,13.02
2022-10-09T18:54:11.454Z,12.96
2022-10-09T18:56:41.767Z,12.91
2022-10-09T18:59:12.285Z,12.84
2022-10-09T19:01:41.807Z,12.79
2022-10-09T19:04:10.183Z,12.78
2022-10-09T19:06:38.326Z,12.71
2022-10-09T19:09:06.921Z,12.62
2022-10-09T19:11:35.726Z,12.59
2022-10-09T19:14:03.928Z,12.57
2022-10-09T19:16:34.938Z,12.63
2022-10-09T19:19:04.860Z,12.70
2022-10-09T19:21:33.057Z,12.73
2022-10-09T19:24:03.583Z,12.77
2022-10-09T19:26:33.062Z,12.76
2022-10-09T19:29:01.414Z,12.65
2022-10-09T19:31:29.580Z,12.53
2022-10-09T19:33:57.778Z,12.52
2022-10-09T19:36:28.312Z,12.52
2022-10-09T19:38:56.483Z,12.49
2022-10-09T19:41:24.523Z,12.49
2022-10-09T19:43:52.670Z,12.36
2022-10-09T19:46:22.739Z,12.27
2022-10-09T19:48:51.558Z,12.18
2022-10-09T19:51:22.570Z,12.13
2022-10-09T19:53:53.636Z,12.06
2022-10-09T19:56:24.530Z,12.07
2022-10-09T19:58:53.443Z,12.06
2022-10-09T20:01:24.005Z,12.10
2022-10-09T20:03:56.293Z,11.89
2022-10-09T20:06:24.385Z,11.92
2022-10-09T20:08:56.470Z,11.93
2022-10-09T20:11:25.043Z,11.90
2022-10-09T20:13:56.036Z,11.79
2022-10-09T20:16:26.006Z,11.75
2022-10-09T20:18:55.605Z,11.71
2022-10-09T20:21:23.992Z,11.64
2022-10-09T20:23:54.108Z,11.68
2022-10-09T20:26:23.407Z,11.54
2022-10-09T20:28:53.861Z,11.55
2022-10-09T20:31:23.966Z,11.56
2022-10-09T20:33:52.542Z,11.47
2022-10-09T20:36:23.356Z,11.28
2022-10-09T20:38:51.849Z,11.32
2022-10-09T20:41:21.354Z,11.32
2022-10-09T20:43:52.369Z,11.28
2022-10-09T20:46:22.312Z,11.29
2022-10-09T20:48:51.570Z,11.28
2022-10-09T20:51:21.101Z,11.16
2022-10-09T20:53:53.280Z,11.04
2022-10-09T20:56:24.121Z,10.97
2022-10-09T20:58:52.697Z,10.92
2022-10-09T21:01:20.797Z,10.92
2022-10-09T21:03:49.127Z,10.79
2022-10-09T21:06:20.683Z,10.86
2022-10-09T21:08:49.075Z,10.80
2022-10-09T21:11:18.168Z,10.79
2022-10-09T21:13:48.391Z,10.81
2022-10-09T21:16:19.431Z,10.82
2022-10-09T21:18:48.206Z,10.81
2022-10-09T21:21:17.631Z,10.70
2022-10-09T21:23:46.500Z,10.69
2022-10-09T21:26:16.218Z,10.72
2022-10-09T21:28:45.245Z,10.73
2022-10-09T21:31:18.020Z,10.69
2022-10-09T21:33:46.369Z,10.53
2022-10-09T21:36:21.178Z,10.45
2022-10-09T21:38:49.268Z,10.59
2022-10-09T21:41:17.405Z,10.58
2022-10-09T21:43:45.494Z,10.49
2022-10-09T21:46:14.898Z,10.43
2022-10-09T21:48:42.967Z,10.44
2022-10-09T21:51:10.978Z,10.37
2022-10-09T21:53:39.337Z,10.38
2022-10-09T21:56:10.053Z,10.42
2022-10-09T21:58:38.810Z,10.39
2022-10-09T22:01:07.518Z,10.30
2022-10-09T22:03:38.118Z,10.32
2022-10-09T22:06:08.088Z,10.31
2022-10-09T22:08:36.604Z,10.13
2022-10-09T22:11:05.689Z,10.12
2022-10-09T22:13:34.068Z,10.12
2022-10-09T22:16:04.935Z,10.10
2022-10-09T22:18:32.925Z,10.05
2022-10-09T22:21:06.661Z,9.90
2022-10-09T22:23:35.468Z,10.18
2022-10-09T22:26:07.128Z,10.17
2022-10-09T22:28:35.500Z,10.15
2022-10-09T22:31:05.979Z,9.96
2022-10-09T22:33:34.783Z,10.14
2022-10-09T22:36:06.067Z,10.15
2022-10-09T22:38:34.094Z,10.10
2022-10-09T22:41:07.056Z,9.92
2022-10-09T22:43:35.181Z,9.89
2022-10-09T22:46:06.743Z,9.90
2022-10-09T22:48:35.195Z,10.02
2022-10-09T22:51:06.145Z,9.72
2022-10-09T22:53:34.827Z,9.78
2022-10-09T22:56:05.679Z,9.88
2022-10-09T22:58:33.812Z,9.84
2022-10-09T23:01:05.576Z,9.82
2022-10-09T23:03:33.741Z,9.78
2022-10-09T23:06:11.659Z,9.82
2022-10-09T23:08:41.242Z,9.78
2022-10-09T23:11:10.526Z,9.81
2022-10-09T23:13:39.155Z,9.73
2022-10-09T23:16:09.713Z,9.75
2022-10-09T23:18:38.693Z,9.64
2022-10-09T23:21:08.000Z,9.70
2022-10-09T23:23:37.528Z,9.60
2022-10-09T23:26:05.986Z,9.59
2022-10-09T23:28:34.032Z,9.58
2022-10-09T23:31:03.311Z,9.71
2022-10-09T23:33:31.379Z,9.72
2022-10-09T23:35:59.453Z,9.56
2022-10-09T23:38:27.489Z,9.69
2022-10-09T23:40:58.185Z,9.66
2022-10-09T23:43:26.857Z,9.70
2022-10-09T23:45:56.441Z,9.60
2022-10-09T23:48:24.539Z,9.65
2022-10-09T23:50:53.783Z,9.73
2022-10-09T23:53:22.451Z,9.71
2022-10-09T23:55:50.433Z,9.63
2022-10-09T23:58:21.177Z,9.47
